Time;durP1;ratioP1;P1;durP2;ratioP2;P2;SDS_P1;SDS_P2;PMS_P1;PMS_P2;Temp;Humidity;BMP_temperature;BMP_pressure;BME280_temperature;BME280_humidity;BME280_pressure;Samples;Min_cycle;Max_cycle;Signal;HPM_P1;HPM_P2
2023/02/08 00:01:13;;;;;;;23.10;11.27;;;;;;;1.59;52.29;102897.56;5050543;27;99151;-79
2023/02/08 00:03:39;;;;;;;16.60;9.90;;;;;;;1.62;52.38;102900.28;5034954;27;97013;-82
2023/02/08 00:06:06;;;;;;;18.87;10.47;;;;;;;1.67;52.22;102911.75;5034516;27;96875;-77
2023/02/08 00:08:33;;;;;;;19.17;10.37;;;;;;;1.76;52.26;102911.25;5033271;27;101191;-80
2023/02/08 00:10:59;;;;;;;18.07;10.40;;;;;;;1.64;52.56;102884.84;5036632;27;101137;-76
2023/02/08 00:13:25;;;;;;;18.87;10.47;;;;;;;1.55;52.34;102878.44;5055761;27;96963;-80
2023/02/08 00:15:53;;;;;;;19.43;11.40;;;;;;;1.62;52.55;102892.53;5027886;27;96914;-77
2023/02/08 00:18:20;;;;;;;22.73;12.23;;;;;;;1.71;52.47;102929.19;5033273;27;99445;-77
2023/02/08 00:20:46;;;;;;;19.70;11.63;;;;;;;1.67;52.50;102924.69;5022489;27;99507;-77
2023/02/08 00:23:14;;;;;;;24.70;12.73;;;;;;;1.66;52.49;102911.66;5051172;27;97871;-78
2023/02/08 00:25:41;;;;;;;20.30;12.17;;;;;;;1.74;52.46;102931.91;5037755;27;97291;-82
2023/02/08 00:28:10;;;;;;;23.03;12.50;;;;;;;1.75;52.84;102925.94;5035017;27;101081;-77
2023/02/08 00:30:37;;;;;;;23.13;12.10;;;;;;;1.63;52.95;102916.72;5048442;27;97340;-77
2023/02/08 00:33:03;;;;;;;25.13;13.93;;;;;;;1.50;52.81;102879.06;5043235;27;97377;-80
2023/02/08 00:35:29;;;;;;;21.10;12.87;;;;;;;1.57;52.56;102900.13;5066704;27;97168;-77
2023/02/08 00:37:56;;;;;;;26.13;13.50;;;;;;;1.53;52.94;102908.53;5030230;27;101976;-77
2023/02/08 00:40:22;;;;;;;22.17;13.60;;;;;;;1.60;53.06;102909.72;5050230;27;100979;-79
2023/02/08 00:42:49;;;;;;;22.77;13.20;;;;;;;1.65;52.65;102928.03;5070842;27;97087;-77
2023/02/08 00:45:15;;;;;;;23.93;14.67;;;;;;;1.66;53.15;102934.97;5045331;27;97129;-78
2023/02/08 00:47:41;;;;;;;21.50;13.70;;;;;;;1.57;53.18;102917.31;5036926;27;101386;-84
2023/02/08 00:50:08;;;;;;;23.23;14.17;;;;;;;1.54;53.25;102902.56;5033047;27;101709;-79
2023/02/08 00:52:36;;;;;;;23.83;14.77;;;;;;;1.51;53.18;102905.03;5051220;27;97394;-78
2023/02/08 00:55:03;;;;;;;25.03;14.27;;;;;;;1.45;53.54;102924.56;5039990;27;97318;-77
2023/02/08 00:57:31;;;;;;;25.10;14.60;;;;;;;1.48;53.19;102917.81;5032162;27;99371;-77
2023/02/08 00:59:57;;;;;;;23.83;14.37;;;;;;;1.39;53.69;102888.03;5032777;27;102613;-77
2023/02/08 01:02:22;;;;;;;26.13;14.97;;;;;;;1.36;53.51;102881.91;5045788;27;96783;-76
2023/02/08 01:04:49;;;;;;;27.33;15.57;;;;;;;1.57;53.67;102909.56;5049193;27;97226;-77
2023/02/08 01:07:16;;;;;;;26.83;15.93;;;;;;;1.57;53.67;102919.91;5044159;27;101372;-78
2023/02/08 01:09:42;;;;;;;27.37;16.07;;;;;;;1.41;54.04;102895.06;5028049;27;102194;-82
2023/02/08 01:12:08;;;;;;;26.03;16.87;;;;;;;1.59;53.86;102929.53;5037293;27;96787;-77
2023/02/08 01:14:37;;;;;;;25.97;15.30;;;;;;;1.50;53.70;102898.06;5046187;27;96960;-77
2023/02/08 01:17:05;;;;;;;31.23;17.03;;;;;;;1.71;54.02;102924.00;5031618;27;101099;-76
2023/02/08 01:19:31;;;;;;;28.87;17.47;;;;;;;1.67;53.74;102916.94;5051335;27;98452;-79
2023/02/08 01:21:56;;;;;;;30.07;16.97;;;;;;;1.70;53.69;102923.94;5027439;27;96888;-77
2023/02/08 01:24:23;;;;;;;17.37;11.07;;;;;;;1.60;53.10;102912.31;5030594;27;97043;-78
2023/02/08 01:26:50;;;;;;;16.90;10.13;;;;;;;1.58;53.18;102911.34;5049230;27;99681;-78
2023/02/08 01:29:15;;;;;;;18.00;10.00;;;;;;;1.52;53.11;102903.31;5063291;27;101916;-82
2023/02/08 01:31:43;;;;;;;21.60;10.97;;;;;;;1.56;53.13;102907.81;5053352;27;96877;-83
2023/02/08 01:34:10;;;;;;;17.63;10.40;;;;;;;1.45;52.90;102876.25;5037419;27;96909;-78
2023/02/08 01:36:36;;;;;;;17.93;10.43;;;;;;;1.46;52.80;102875.47;5051520;27;100450;-80
2023/02/08 01:39:04;;;;;;;16.23;9.90;;;;;;;1.69;52.38;102904.94;5040223;27;100650;-78
2023/02/08 01:41:36;;;;;;;20.33;11.50;;;;;;;1.31;52.96;102893.78;5037964;27;96862;-78
2023/02/08 01:44:07;;;;;;;19.63;11.23;;;;;;;0.98;53.36;102880.19;5036923;27;97214;-78
2023/02/08 01:46:38;;;;;;;19.83;10.97;;;;;;;0.90;53.43;102856.56;5051229;27;100983;-80
2023/02/08 01:49:27;;;;;;;16.33;10.60;;;;;;;1.05;53.98;102878.78;5046537;27;97913;-76
2023/02/08 01:52:02;;;;;;;19.70;11.03;;;;;;;1.14;53.68;102871.44;5052965;27;97110;-76
2023/02/08 01:54:33;;;;;;;19.23;10.90;;;;;;;1.26;53.48;102903.03;5041950;27;97235;-78
2023/02/08 01:56:59;;;;;;;17.13;10.70;;;;;;;1.20;53.91;102882.06;5029596;27;100176;-78
2023/02/08 01:59:33;;;;;;;17.10;9.83;;;;;;;1.35;53.22;102897.38;5046257;27;102864;-79
2023/02/08 02:02:02;;;;;;;18.63;11.00;;;;;;;1.37;53.38;102888.00;5064024;27;97200;-78
2023/02/08 02:04:28;;;;;;;20.33;10.73;;;;;;;1.31;53.48;102872.19;5035481;27;97435;-79
2023/02/08 02:06:58;;;;;;;18.50;9.43;;;;;;;1.35;53.74;102874.09;5064270;27;99611;-78
2023/02/08 02:09:29;;;;;;;15.40;9.53;;;;;;;1.27;53.49;102849.56;5041097;27;97459;-78
2023/02/08 02:11:59;;;;;;;13.80;9.10;;;;;;;1.32;52.45;102863.59;5036450;27;96961;-79
2023/02/08 02:14:25;;;;;;;18.13;9.70;;;;;;;1.50;53.09;102892.88;5053853;27;96961;-78
2023/02/08 02:16:51;;;;;;;14.07;8.60;;;;;;;1.43;52.44;102871.84;5061041;27;99583;-79
2023/02/08 02:19:43;;;;;;;13.13;9.00;;;;;;;1.35;52.49;102864.63;5027830;27;100716;-78
2023/02/08 02:22:30;;;;;;;14.13;9.03;;;;;;;1.42;52.14;102859.72;5025715;27;97454;-78
2023/02/08 02:25:23;;;;;;;14.87;8.97;;;;;;;1.49;52.55;102888.53;5053353;27;97152;-77
2023/02/08 02:28:05;;;;;;;14.80;8.33;;;;;;;1.40;52.15;102890.72;5049846;27;98309;-77
2023/02/08 02:31:08;;;;;;;15.20;8.93;;;;;;;1.44;52.41;102889.16;5045963;27;101078;-76
2023/02/08 02:34:13;;;;;;;15.73;9.67;;;;;;;1.35;52.46;102868.91;5066689;27;97219;-77
2023/02/08 02:36:56;;;;;;;17.37;9.47;;;;;;;1.13;52.47;102885.16;4972686;28;97189;-77
2023/02/08 02:39:34;;;;;;;17.40;9.90;;;;;;;1.07;53.14;102887.47;4964744;28;100262;-77
2023/02/08 02:45:35;;;;;;;15.03;8.50;;;;;;;1.09;52.89;102894.50;4986458;28;97569;-79
2023/02/08 02:48:01;;;;;;;15.10;8.70;;;;;;;1.17;52.63;102900.03;4963719;28;97928;-80
2023/02/08 02:50:43;;;;;;;16.43;9.73;;;;;;;0.79;52.61;102857.78;4965844;28;100483;-77
2023/02/08 02:53:11;;;;;;;;;;;;;;;0.90;52.98;102897.97;4961940;28;101237;-77
2023/02/08 02:55:41;;;;;;;18.50;10.80;;;;;;;0.79;53.36;102864.66;4991804;28;97251;-82
2023/02/08 02:58:10;;;;;;;20.20;11.13;;;;;;;0.74;52.92;102856.66;4973946;28;96950;-79
2023/02/08 03:00:36;;;;;;;22.00;12.00;;;;;;;0.86;53.50;102852.06;4953098;28;102542;-77
2023/02/08 03:03:01;;;;;;;20.63;11.57;;;;;;;0.98;53.45;102887.94;4972716;28;100488;-80
2023/02/08 03:05:28;;;;;;;20.53;11.97;;;;;;;0.67;53.03;102816.72;5008132;28;96853;-78
2023/02/08 03:08:23;;;;;;;17.47;8.83;;;;;;;0.96;52.68;102887.00;5032283;27;97155;-76
2023/02/08 03:11:14;;;;;;;12.80;7.30;;;;;;;0.79;51.63;102865.53;5035091;27;100899;-77
2023/02/08 03:14:03;;;;;;;12.40;6.73;;;;;;;0.92;51.77;102889.38;5044798;27;97323;-80
2023/02/08 03:17:07;;;;;;;11.00;6.50;;;;;;;1.01;51.54;102893.25;5042423;27;97868;-78
2023/02/08 03:19:43;;;;;;;15.10;7.97;;;;;;;1.00;51.52;102896.66;5019859;27;97227;-79
2023/02/08 03:22:34;;;;;;;16.70;9.37;;;;;;;0.85;52.71;102899.44;5049296;27;99643;-80
2023/02/08 03:25:15;;;;;;;15.93;9.03;;;;;;;0.78;52.87;102899.94;5047879;27;99821;-78
2023/02/08 03:28:03;;;;;;;18.50;10.57;;;;;;;0.66;53.02;102902.84;5047770;27;97068;-80
2023/02/08 03:30:50;;;;;;;18.97;10.20;;;;;;;0.64;53.40;102888.06;5033089;27;96846;-77
2023/02/08 03:33:50;;;;;;;16.43;10.43;;;;;;;0.75;53.72;102912.72;5033946;27;100967;-78
2023/02/08 03:36:41;;;;;;;20.23;10.97;;;;;;;0.61;53.92;102904.34;5012407;27;101351;-78
2023/02/08 03:39:10;;;;;;;19.57;10.70;;;;;;;0.63;54.15;102901.81;5067437;27;97233;-78
2023/02/08 03:41:38;;;;;;;20.83;11.00;;;;;;;0.54;54.88;102893.63;5035269;27;97328;-80
2023/02/08 03:44:08;;;;;;;23.73;11.93;;;;;;;0.65;54.40;102908.81;5035894;27;101408;-78
2023/02/08 03:46:39;;;;;;;19.17;11.57;;;;;;;0.77;54.50;102913.69;5035355;27;101495;-79
2023/02/08 03:49:08;;;;;;;19.57;12.17;;;;;;;0.76;54.19;102892.97;5025276;27;96947;-78
2023/02/08 03:51:40;;;;;;;22.83;12.77;;;;;;;0.97;54.47;102924.97;5052758;27;97282;-79
2023/02/08 03:54:11;;;;;;;21.60;12.50;;;;;;;0.79;54.36;102881.03;5036560;27;101390;-77
2023/02/08 03:56:55;;;;;;;26.23;12.83;;;;;;;0.84;54.48;102894.19;5056421;27;99147;-77
2023/02/08 03:59:26;;;;;;;18.07;12.27;;;;;;;0.84;54.04;102894.19;5054012;27;97164;-77
2023/02/08 04:01:58;;;;;;;22.57;13.43;;;;;;;0.85;54.13;102880.44;5052957;27;97154;-77
2023/02/08 04:04:26;;;;;;;21.88;12.85;;;;;;;0.87;54.33;102904.66;5033784;27;99460;-78
2023/02/08 04:06:52;;;;;;;22.20;13.60;;;;;;;1.08;54.29;102930.66;5021335;27;101036;-77
2023/02/08 04:09:18;;;;;;;25.37;15.00;;;;;;;0.92;53.99;102884.19;5050688;27;97057;-77
2023/02/08 04:11:44;;;;;;;24.43;14.23;;;;;;;1.08;54.59;102917.72;5063365;27;97120;-81
2023/02/08 04:14:11;;;;;;;24.47;14.10;;;;;;;1.15;54.22;102930.13;5035658;27;100916;-77
2023/02/08 04:16:36;;;;;;;24.07;14.03;;;;;;;0.83;54.16;102887.25;5034555;27;100515;-77
2023/02/08 04:19:02;;;;;;;23.10;14.77;;;;;;;1.04;54.39;102913.22;5035487;27;96997;-80
2023/02/08 04:21:28;;;;;;;27.43;16.03;;;;;;;1.02;54.80;102907.06;5053090;27;96871;-78
2023/02/08 04:23:53;;;;;;;24.93;14.57;;;;;;;0.96;54.34;102899.03;5028388;27;101287;-78
2023/02/08 04:26:19;;;;;;;23.23;13.90;;;;;;;0.89;55.14;102892.69;5040584;27;97469;-78
2023/02/08 04:28:45;;;;;;;22.27;13.67;;;;;;;0.86;54.52;102888.25;5033482;27;96994;-78
2023/02/08 04:31:10;;;;;;;22.40;13.63;;;;;;;1.07;54.42;102927.16;5023707;27;96786;-80
2023/02/08 04:33:36;;;;;;;24.43;13.63;;;;;;;1.02;54.93;102910.56;5013051;28;101113;-77
2023/02/08 04:36:03;;;;;;;23.33;13.70;;;;;;;0.99;54.35;102887.16;5012023;27;97480;-77
2023/02/08 04:38:29;;;;;;;22.50;13.43;;;;;;;0.99;54.34;102887.16;4999721;27;97288;-77
2023/02/08 04:40:55;;;;;;;23.43;12.80;;;;;;;0.93;54.37;102880.78;5001285;28;96859;-77
2023/02/08 04:43:20;;;;;;;23.53;13.60;;;;;;;0.86;54.15;102880.50;4995438;27;100918;-77
2023/02/08 04:45:49;;;;;;;23.83;13.63;;;;;;;1.04;54.53;102906.31;5010062;27;99426;-77
2023/02/08 04:48:14;;;;;;;23.70;14.07;;;;;;;1.10;54.31;102904.03;4997862;28;96824;-78
2023/02/08 04:50:41;;;;;;;23.80;13.63;;;;;;;1.14;54.31;102920.59;5007988;27;96892;-81
2023/02/08 04:53:06;;;;;;;22.33;12.47;;;;;;;1.12;54.52;102906.69;4996151;28;100714;-77
2023/02/08 04:55:34;;;;;;;25.13;13.73;;;;;;;1.03;54.42;102896.81;4995132;27;99198;-76
2023/02/08 04:58:01;;;;;;;22.73;13.20;;;;;;;1.15;54.59;102906.84;4996941;28;97047;-79
2023/02/08 05:00:28;;;;;;;23.07;14.03;;;;;;;1.23;54.28;102921.00;5017899;27;97030;-78
2023/02/08 05:02:55;;;;;;;26.67;14.53;;;;;;;1.26;54.33;102921.16;5000290;27;102294;-76
2023/02/08 05:05:23;;;;;;;24.63;13.13;;;;;;;1.07;54.53;102874.53;4998265;28;100771;-77
2023/02/08 05:07:50;;;;;;;22.00;13.43;;;;;;;1.28;54.19;102906.59;5013349;27;96858;-82
2023/02/08 05:10:16;;;;;;;21.87;13.30;;;;;;;1.10;53.74;102872.97;5013930;28;96954;-78
2023/02/08 05:12:42;;;;;;;24.77;14.27;;;;;;;1.20;54.52;102884.66;4993358;27;101058;-79
2023/02/08 05:15:09;;;;;;;28.20;15.07;;;;;;;1.11;54.21;102871.31;5010591;28;101057;-77
2023/02/08 05:17:35;;;;;;;24.17;14.00;;;;;;;0.98;54.35;102840.50;4987937;28;98078;-77
2023/02/08 05:20:01;;;;;;;26.63;14.63;;;;;;;1.13;54.61;102872.22;4996523;28;97056;-78
2023/02/08 05:22:28;;;;;;;21.90;13.50;;;;;;;1.28;54.37;102903.09;5015883;27;100785;-79
2023/02/08 05:24:53;;;;;;;25.47;14.23;;;;;;;1.12;54.38;102875.66;5037005;27;99277;-78
2023/02/08 05:27:20;;;;;;;31.10;14.53;;;;;;;1.07;54.34;102874.53;5033578;27;97097;-79
2023/02/08 05:29:45;;;;;;;24.03;14.27;;;;;;;1.06;54.70;102875.38;5037815;27;97827;-78
2023/02/08 05:32:12;;;;;;;27.40;15.53;;;;;;;1.22;54.24;102916.66;5044863;27;97986;-79
2023/02/08 05:34:38;;;;;;;26.63;16.03;;;;;;;1.10;54.68;102903.13;5051092;27;97972;-79
2023/02/08 05:37:04;;;;;;;22.53;14.20;;;;;;;1.12;54.75;102907.56;5033740;27;97084;-79
2023/02/08 05:39:29;;;;;;;33.43;16.13;;;;;;;1.15;54.68;102924.06;5032300;27;97261;-79
2023/02/08 05:41:55;;;;;;;23.73;14.30;;;;;;;1.08;54.46;102915.16;5032708;27;99540;-80
2023/02/08 05:44:21;;;;;;;26.70;14.87;;;;;;;1.06;55.03;102927.09;5032214;27;101428;-77
2023/02/08 05:46:46;;;;;;;25.40;15.00;;;;;;;1.05;54.80;102926.22;5047248;27;96911;-77
2023/02/08 05:49:12;;;;;;;25.43;15.03;;;;;;;0.99;54.73;102919.88;5048268;27;97306;-79
2023/02/08 05:51:38;;;;;;;28.87;16.37;;;;;;;0.96;54.72;102915.47;5045283;27;101657;-79
2023/02/08 05:54:03;;;;;;;26.83;15.30;;;;;;;0.85;54.73;102896.84;5047774;27;99250;-78
2023/02/08 05:56:31;;;;;;;25.13;15.13;;;;;;;0.88;55.05;102906.44;5033933;27;96805;-79
2023/02/08 05:58:59;;;;;;;32.13;15.77;;;;;;;0.84;54.69;102901.94;5043404;27;96868;-77
2023/02/08 06:01:25;;;;;;;24.40;14.33;;;;;;;0.94;54.87;102914.50;5042979;27;101512;-81
2023/02/08 06:03:50;;;;;;;24.13;14.30;;;;;;;0.91;55.04;102922.13;5034724;27;101259;-82
2023/02/08 06:06:16;;;;;;;23.17;13.97;;;;;;;0.93;55.04;102917.00;5068522;27;97687;-80
2023/02/08 06:08:42;;;;;;;24.73;14.77;;;;;;;0.90;54.79;102926.41;5050816;27;97202;-81
2023/02/08 06:11:08;;;;;;;25.20;15.53;;;;;;;0.83;55.35;102919.16;5043134;27;102015;-79
2023/02/08 06:13:33;;;;;;;25.07;14.80;;;;;;;0.89;55.41;102936.66;5034390;27;101271;-79
2023/02/08 06:15:59;;;;;;;25.03;13.90;;;;;;;0.70;55.05;102900.38;5051856;27;96806;-80
2023/02/08 06:18:26;;;;;;;22.53;14.70;;;;;;;0.81;55.22;102907.84;5040434;27;97273;-80
2023/02/08 06:20:53;;;;;;;25.77;14.30;;;;;;;0.88;54.95;102934.91;5048603;27;101626;-86
2023/02/08 06:23:19;;;;;;;26.63;14.33;;;;;;;0.89;55.05;102936.66;5051479;27;101192;-86
2023/02/08 06:25:45;;;;;;;23.63;15.00;;;;;;;0.71;55.03;102903.06;5050576;27;97293;-86
2023/02/08 06:28:11;;;;;;;27.97;14.37;;;;;;;0.85;55.18;102939.94;5031838;27;97483;-85
2023/02/08 06:30:37;;;;;;;26.00;15.33;;;;;;;0.87;54.97;102941.78;5032365;27;99141;-86
2023/02/08 06:33:04;;;;;;;30.07;16.27;;;;;;;0.87;55.03;102933.09;5052637;27;100862;-82
2023/02/08 06:35:30;;;;;;;25.23;14.77;;;;;;;0.84;55.41;102932.97;5051303;27;96985;-84
2023/02/08 06:37:55;;;;;;;28.87;16.37;;;;;;;0.71;55.02;102913.41;5051407;27;97009;-80
2023/02/08 06:40:21;;;;;;;29.37;16.80;;;;;;;0.79;55.48;102931.88;5038604;27;99589;-94
2023/02/08 06:42:48;;;;;;;30.23;16.27;;;;;;;0.82;55.30;102935.50;5056091;27;99955;-92
2023/02/08 06:45:13;;;;;;;28.63;16.00;;;;;;;0.80;56.14;102934.53;5032346;27;97252;-89
2023/02/08 06:47:39;;;;;;;32.77;19.00;;;;;;;0.79;55.71;102935.34;5056592;27;96864;-92
2023/02/08 06:50:05;;;;;;;27.97;16.40;;;;;;;0.57;55.84;102906.69;5036191;27;100067;-94
2023/02/08 06:52:31;;;;;;;28.57;15.53;;;;;;;0.81;55.75;102943.16;5051614;27;100330;-91
2023/02/08 06:54:59;;;;;;;30.17;15.60;;;;;;;0.79;55.29;102950.88;5037018;27;97283;-92
2023/02/08 06:57:24;;;;;;;26.83;14.83;;;;;;;0.69;55.81;102922.78;5038365;27;97113;-92
2023/02/08 06:59:50;;;;;;;31.40;15.70;;;;;;;0.72;55.93;102922.03;5052756;27;101243;-93
2023/02/08 07:02:18;;;;;;;27.97;15.90;;;;;;;0.66;55.84;102910.59;5052096;27;101317;-92
2023/02/08 07:04:44;;;;;;;31.47;16.43;;;;;;;0.94;55.49;102961.06;5036751;27;97132;-90
2023/02/08 07:07:15;;;;;;;33.17;17.67;;;;;;;1.00;55.62;102971.69;5037392;27;97174;-91
2023/02/08 07:09:40;;;;;;;32.83;17.47;;;;;;;0.87;55.86;102949.53;5032448;27;101437;-92
2023/02/08 07:12:06;;;;;;;31.37;16.87;;;;;;;1.01;55.79;102968.28;5034493;27;99891;-92
2023/02/08 07:14:34;;;;;;;26.73;16.07;;;;;;;0.84;55.58;102944.22;5047902;27;96733;-92
2023/02/08 07:17:00;;;;;;;28.07;15.57;;;;;;;1.10;56.17;102983.34;5031883;27;97154;-94
2023/02/08 07:19:26;;;;;;;29.33;15.97;;;;;;;1.16;55.66;102985.34;5029478;27;101511;-93
2023/02/08 07:21:52;;;;;;;28.43;16.10;;;;;;;1.20;55.47;102988.16;5044628;27;101493;-93
2023/02/08 07:24:18;;;;;;;29.23;15.87;;;;;;;1.22;55.88;102990.78;5049634;27;96764;-93
2023/02/08 07:26:43;;;;;;;28.77;16.50;;;;;;;1.22;55.41;102993.38;5039093;27;97311;-90
2023/02/08 07:29:09;;;;;;;29.47;16.93;;;;;;;1.18;55.47;102989.78;5038547;27;101303;-92
2023/02/08 07:31:34;;;;;;;33.13;16.80;;;;;;;1.24;55.56;103000.41;5028986;27;100895;-94
2023/02/08 07:34:00;;;;;;;38.83;19.27;;;;;;;1.17;54.89;102984.53;5052625;27;97856;-95
2023/02/08 07:36:25;;;;;;;39.93;20.10;;;;;;;1.19;55.09;102996.72;5046972;27;96860;-92
2023/02/08 07:38:51;;;;;;;37.20;19.43;;;;;;;1.13;55.10;102991.25;5033896;27;100112;-89
2023/02/08 07:41:16;;;;;;;36.23;19.70;;;;;;;1.13;55.42;103001.59;5066453;27;97252;-90
2023/02/08 07:43:42;;;;;;;39.07;19.60;;;;;;;1.07;56.09;103003.91;5036705;27;97208;-89
2023/02/08 07:46:16;;;;;;;35.07;19.20;;;;;;;1.02;55.75;103024.41;5039171;27;97055;-91
2023/02/08 07:48:42;;;;;;;32.87;19.07;;;;;;;0.93;55.92;103002.34;5030348;27;101298;-91
2023/02/08 07:51:09;;;;;;;38.93;20.53;;;;;;;1.04;56.14;103024.44;5040952;27;97778;-90
2023/02/08 07:53:35;;;;;;;36.33;19.50;;;;;;;1.12;56.12;103023.13;5032781;27;96818;-89
2023/02/08 07:56:00;;;;;;;36.13;20.00;;;;;;;1.15;55.93;103024.97;5067743;27;96786;-90
2023/02/08 07:58:26;;;;;;;36.30;18.03;;;;;;;1.12;56.12;103025.72;5034561;27;101481;-90
2023/02/08 08:00:52;;;;;;;38.47;20.27;;;;;;;1.15;55.81;103020.69;5067737;27;98501;-92
2023/02/08 08:03:17;;;;;;;40.50;20.60;;;;;;;1.24;55.91;103035.75;5035271;27;97414;-88
2023/02/08 08:05:43;;;;;;;34.03;18.90;;;;;;;1.27;55.85;103026.44;5070125;27;97018;-90
2023/02/08 08:08:10;;;;;;;35.93;19.37;;;;;;;1.34;56.00;103036.28;5031817;27;101594;-91
2023/02/08 08:10:35;;;;;;;36.10;20.10;;;;;;;1.34;55.78;103032.81;5069193;27;101083;-88
2023/02/08 08:13:01;;;;;;;36.60;19.67;;;;;;;1.29;56.19;103029.97;5049075;27;97164;-91
2023/02/08 08:15:27;;;;;;;37.90;20.57;;;;;;;1.32;56.48;103021.47;5033463;27;96830;-90
2023/02/08 08:17:53;;;;;;;36.90;20.20;;;;;;;1.39;56.46;103030.41;5044809;27;101462;-89
2023/02/08 08:20:19;;;;;;;38.37;19.60;;;;;;;1.38;56.58;103023.47;5054025;27;101554;-86
2023/02/08 08:22:45;;;;;;;34.87;19.73;;;;;;;1.45;56.36;103031.56;5038006;27;97490;-86
2023/02/08 08:25:10;;;;;;;38.23;22.23;;;;;;;1.41;56.49;103008.97;5029422;27;97279;-79
2023/02/08 08:27:36;;;;;;;34.67;21.30;;;;;;;1.48;56.76;103016.19;5036985;27;101450;-81
2023/02/08 08:30:04;;;;;;;36.67;21.17;;;;;;;1.54;56.66;103031.13;5060921;27;101723;-82
2023/02/08 08:32:30;;;;;;;42.27;23.37;;;;;;;1.33;56.73;102992.19;5053868;27;97146;-82
2023/02/08 08:34:55;;;;;;;40.00;22.47;;;;;;;1.47;56.57;103021.31;5056697;27;97198;-87
2023/02/08 08:37:21;;;;;;;44.50;22.53;;;;;;;1.52;56.70;103023.28;5042620;27;101114;-81
2023/02/08 08:39:47;;;;;;;42.57;23.13;;;;;;;1.61;57.21;103020.25;5043738;27;101042;-82
2023/02/08 08:42:12;;;;;;;43.77;24.23;;;;;;;1.65;56.81;103008.31;5056102;27;96994;-80
2023/02/08 08:44:38;;;;;;;48.37;24.57;;;;;;;1.72;56.73;103000.03;5032374;27;97400;-83
2023/02/08 08:47:04;;;;;;;47.90;25.27;;;;;;;1.89;56.44;103017.19;5067257;27;97865;-82
2023/02/08 08:49:30;;;;;;;47.73;24.40;;;;;;;1.72;56.80;102987.94;5042455;27;100852;-85
2023/02/08 08:51:56;;;;;;;47.90;24.23;;;;;;;1.86;57.03;103013.56;5047254;27;97013;-81
2023/02/08 08:54:21;;;;;;;48.40;23.77;;;;;;;1.83;56.72;103005.66;5072175;27;96749;-80
2023/02/08 08:56:47;;;;;;;45.60;22.90;;;;;;;1.88;56.63;103015.41;5070194;27;97871;-80
2023/02/08 08:59:13;;;;;;;45.93;23.47;;;;;;;1.74;56.74;102993.19;5030455;27;101093;-78
2023/02/08 09:01:41;;;;;;;46.60;23.00;;;;;;;1.89;56.86;103017.19;5048265;27;98564;-85
2023/02/08 09:04:07;;;;;;;41.80;23.13;;;;;;;1.81;57.09;103018.56;5051938;27;97696;-86
2023/02/08 09:06:33;;;;;;;48.13;25.43;;;;;;;1.80;57.22;103030.63;5051007;27;100934;-85
2023/02/08 09:09:00;;;;;;;46.27;24.40;;;;;;;1.81;57.14;103021.16;5073129;27;97130;-86
2023/02/08 09:11:25;;;;;;;46.40;24.63;;;;;;;1.86;57.20;103027.41;5064092;27;96995;-85
2023/02/08 09:13:54;;;;;;;45.40;25.23;;;;;;;1.80;57.00;103022.84;5060694;27;98155;-85
2023/02/08 09:16:19;;;;;;;46.60;24.20;;;;;;;1.88;57.24;103030.06;5034329;27;100783;-83
2023/02/08 09:18:45;;;;;;;39.20;21.63;;;;;;;1.87;57.33;103016.22;5053592;27;97767;-83
2023/02/08 09:21:16;;;;;;;43.33;23.07;;;;;;;1.89;57.28;103012.00;5028709;27;97329;-83
2023/02/08 09:23:43;;;;;;;51.58;24.50;;;;;;;2.00;57.52;103017.66;5048126;27;96979;-84
2023/02/08 09:26:10;;;;;;;42.27;23.03;;;;;;;2.04;57.19;103025.63;5032803;27;99661;-83
2023/02/08 09:28:36;;;;;;;42.00;22.03;;;;;;;1.99;57.42;103026.25;5031984;27;101424;-84
2023/02/08 09:31:19;;;;;;;40.10;20.87;;;;;;;1.83;57.21;103005.66;5051048;27;96791;-85
2023/02/08 09:33:46;;;;;;;36.47;20.93;;;;;;;1.97;57.17;103036.53;5056916;27;97141;-85
2023/02/08 09:36:12;;;;;;;40.17;22.43;;;;;;;1.85;57.07;103012.69;5041723;27;98101;-86
2023/02/08 09:38:38;;;;;;;46.60;24.27;;;;;;;1.83;57.43;103001.34;5049893;27;97510;-86
2023/02/08 09:41:31;;;;;;;40.43;22.17;;;;;;;1.90;57.42;103031.91;5051568;27;97000;-86
2023/02/08 09:44:13;;;;;;;42.73;24.80;;;;;;;1.87;57.20;103026.59;5043830;27;97257;-79
2023/02/08 09:46:40;;;;;;;43.45;24.33;;;;;;;1.88;57.53;103023.19;5035711;27;101584;-78
2023/02/08 09:49:13;;;;;;;36.80;21.30;;;;;;;1.87;57.72;103036.97;5050879;27;98229;-78
2023/02/08 09:51:41;;;;;;;42.03;22.30;;;;;;;1.89;57.53;103032.75;5033496;27;97103;-81
2023/02/08 09:54:24;;;;;;;35.30;20.27;;;;;;;1.72;57.79;102994.84;5063028;27;97270;-78
2023/02/08 09:56:51;;;;;;;35.50;20.03;;;;;;;1.83;57.64;103016.00;5030052;27;100733;-80
2023/02/08 09:59:28;;;;;;;39.00;21.50;;;;;;;1.83;57.75;103016.91;5049647;27;101579;-79
2023/02/08 10:02:13;;;;;;;35.03;20.03;;;;;;;1.95;57.47;103022.66;5068595;27;96818;-80
2023/02/08 10:04:59;;;;;;;46.13;21.50;;;;;;;1.91;57.85;103019.84;5040444;27;97235;-78
2023/02/08 10:07:25;;;;;;;39.33;21.70;;;;;;;1.81;58.13;103018.56;5031242;27;101063;-81
2023/02/08 10:09:53;;;;;;;38.90;21.43;;;;;;;1.72;58.17;103013.84;5048745;27;101912;-78
2023/02/08 10:12:31;;;;;;;38.17;21.10;;;;;;;1.50;58.19;102980.03;5047772;27;97204;-79
2023/02/08 10:15:21;;;;;;;42.23;20.10;;;;;;;1.81;59.03;103018.56;5064211;27;96933;-78
2023/02/08 10:18:00;;;;;;;36.13;20.27;;;;;;;1.88;58.06;103006.75;5043261;27;100789;-79
2023/02/08 10:20:34;;;;;;;37.50;21.00;;;;;;;1.92;57.97;103019.94;5063620;27;97920;-80
2023/02/08 10:23:36;;;;;;;39.87;20.97;;;;;;;1.96;58.10;103000.22;5050339;27;97138;-82
2023/02/08 10:26:50;;;;;;;45.13;21.98;;;;;;;2.01;58.29;103009.09;5017164;27;97111;-83
2023/02/08 10:29:48;;;;;;;42.67;21.20;;;;;;;2.12;58.76;103006.94;5030198;27;101464;-78
2023/02/08 10:32:33;;;;;;;34.83;19.77;;;;;;;2.09;58.48;102997.31;5049604;27;101686;-79
2023/02/08 10:35:04;;;;;;;35.60;21.03;;;;;;;2.04;58.39;102999.72;5045252;27;97076;-83
2023/02/08 10:37:33;;;;;;;45.50;22.87;;;;;;;2.02;58.17;103010.84;5027699;27;97172;-81
2023/02/08 10:40:30;;;;;;;40.33;21.50;;;;;;;2.00;58.56;103004.69;5045820;27;101033;-79
2023/02/08 10:43:31;;;;;;;41.27;22.07;;;;;;;1.96;58.36;102993.31;5036004;27;101569;-82
2023/02/08 10:46:29;;;;;;;48.93;23.73;;;;;;;2.01;58.65;102991.81;5034472;27;97298;-80
2023/02/08 10:49:07;;;;;;;40.20;22.17;;;;;;;2.06;58.36;102988.53;5037998;27;97985;-80
2023/02/08 10:51:33;;;;;;;42.50;23.53;;;;;;;2.06;58.82;102989.41;5047271;27;101816;-81
2023/02/08 10:53:59;;;;;;;39.83;22.93;;;;;;;2.11;58.26;102987.91;5045258;27;97911;-80
2023/02/08 10:56:33;;;;;;;35.77;21.23;;;;;;;2.15;58.50;102983.75;5059973;27;98351;-82
2023/02/08 10:59:01;;;;;;;39.60;21.70;;;;;;;2.23;58.37;102990.16;5047197;27;98275;-81
2023/02/08 11:01:27;;;;;;;42.27;22.47;;;;;;;2.26;58.35;102979.91;5029868;27;100861;-80
2023/02/08 11:04:05;;;;;;;41.27;22.03;;;;;;;2.28;58.20;102974.81;5025185;27;101518;-80
2023/02/08 11:06:31;;;;;;;41.23;22.73;;;;;;;2.31;58.19;102967.16;5058126;27;97210;-82
2023/02/08 11:08:57;;;;;;;46.80;24.73;;;;;;;2.22;58.15;102962.47;5046761;27;97004;-78
2023/02/08 11:11:25;;;;;;;46.70;25.63;;;;;;;2.28;58.21;102980.88;5023939;27;101476;-85
2023/02/08 11:13:51;;;;;;;46.83;25.17;;;;;;;2.37;58.03;102975.19;5066103;27;97479;-86
2023/02/08 11:16:25;;;;;;;44.37;26.33;;;;;;;2.30;58.19;102978.31;5049949;27;97145;-86
2023/02/08 11:19:00;;;;;;;42.10;22.73;;;;;;;2.10;58.89;102951.59;5029784;27;96830;-85
2023/02/08 11:21:32;;;;;;;45.07;25.13;;;;;;;2.10;58.70;102967.13;5048859;27;100535;-85
2023/02/08 11:24:00;;;;;;;46.40;25.77;;;;;;;1.92;59.19;102934.44;5053099;27;98034;-84
2023/02/08 11:26:52;;;;;;;47.33;25.17;;;;;;;2.15;59.58;102958.75;5027140;27;97332;-85
2023/02/08 11:29:26;;;;;;;46.22;25.60;;;;;;;2.14;59.51;102946.56;4985916;28;97547;-86
2023/02/08 11:32:00;;;;;;;49.53;27.20;;;;;;;2.21;59.52;102960.66;5007573;27;98227;-86